sensor_id;sensor_type;location;lat;lon;timestamp;P1;durP1;ratioP1;P2;durP2;ratioP2
9563;SDS011;4820;50.870;4.702;2024-02-15T00:01:40;8.48;;;3.80;;
9563;SDS011;4820;50.870;4.702;2024-02-15T00:04:07;9.80;;;3.67;;
9563;SDS011;4820;50.870;4.702;2024-02-15T00:06:32;10.57;;;4.18;;
9563;SDS011;4820;50.870;4.702;2024-02-15T00:08:58;11.65;;;4.15;;
9563;SDS011;4820;50.870;4.702;2024-02-15T00:11:23;6.95;;;3.65;;
9563;SDS011;4820;50.870;4.702;2024-02-15T00:13:49;7.25;;;3.55;;
9563;SDS011;4820;50.870;4.702;2024-02-15T00:16:15;9.55;;;3.70;;
9563;SDS011;4820;50.870;4.702;2024-02-15T00:18:40;9.35;;;3.58;;
9563;SDS011;4820;50.870;4.702;2024-02-15T00:21:06;7.90;;;3.50;;
9563;SDS011;4820;50.870;4.702;2024-02-15T00:23:32;11.50;;;3.67;;
9563;SDS011;4820;50.870;4.702;2024-02-15T00:25:57;7.30;;;3.35;;
9563;SDS011;4820;50.870;4.702;2024-02-15T00:28:24;10.20;;;3.80;;
9563;SDS011;4820;50.870;4.702;2024-02-15T00:30:51;7.03;;;3.20;;
9563;SDS011;4820;50.870;4.702;2024-02-15T00:33:17;7.65;;;3.58;;
9563;SDS011;4820;50.870;4.702;2024-02-15T00:35:43;8.07;;;3.72;;
9563;SDS011;4820;50.870;4.702;2024-02-15T00:38:08;9.13;;;3.30;;
9563;SDS011;4820;50.870;4.702;2024-02-15T00:40:34;8.68;;;3.47;;
9563;SDS011;4820;50.870;4.702;2024-02-15T00:43:00;9.55;;;3.70;;
9563;SDS011;4820;50.870;4.702;2024-02-15T00:45:26;8.52;;;3.40;;
9563;SDS011;4820;50.870;4.702;2024-02-15T00:47:51;10.40;;;3.38;;
9563;SDS011;4820;50.870;4.702;2024-02-15T00:50:18;10.32;;;3.97;;
9563;SDS011;4820;50.870;4.702;2024-02-15T00:52:44;9.65;;;3.75;;
9563;SDS011;4820;50.870;4.702;2024-02-15T00:55:10;8.10;;;3.50;;
9563;SDS011;4820;50.870;4.702;2024-02-15T00:57:36;8.68;;;3.67;;
9563;SDS011;4820;50.870;4.702;2024-02-15T01:00:02;9.70;;;3.60;;
9563;SDS011;4820;50.870;4.702;2024-02-15T01:02:31;9.63;;;3.40;;
9563;SDS011;4820;50.870;4.702;2024-02-15T01:04:57;8.98;;;3.42;;
9563;SDS011;4820;50.870;4.702;2024-02-15T01:07:24;10.40;;;3.88;;
9563;SDS011;4820;50.870;4.702;2024-02-15T01:09:53;8.93;;;3.45;;
9563;SDS011;4820;50.870;4.702;2024-02-15T01:12:19;10.40;;;4.00;;
9563;SDS011;4820;50.870;4.702;2024-02-15T01:14:46;12.07;;;3.83;;
9563;SDS011;4820;50.870;4.702;2024-02-15T01:17:12;10.98;;;3.92;;
9563;SDS011;4820;50.870;4.702;2024-02-15T01:19:38;8.35;;;3.55;;
9563;SDS011;4820;50.870;4.702;2024-02-15T01:22:04;9.35;;;3.63;;
9563;SDS011;4820;50.870;4.702;2024-02-15T01:24:31;11.25;;;3.47;;
9563;SDS011;4820;50.870;4.702;2024-02-15T01:26:57;10.73;;;4.07;;
9563;SDS011;4820;50.870;4.702;2024-02-15T01:29:23;7.63;;;3.83;;
9563;SDS011;4820;50.870;4.702;2024-02-15T01:31:50;12.60;;;3.92;;
9563;SDS011;4820;50.870;4.702;2024-02-15T01:34:17;9.07;;;3.88;;
9563;SDS011;4820;50.870;4.702;2024-02-15T01:36:43;8.95;;;4.05;;
9563;SDS011;4820;50.870;4.702;2024-02-15T01:39:09;8.00;;;4.03;;
9563;SDS011;4820;50.870;4.702;2024-02-15T01:41:35;8.57;;;3.25;;
9563;SDS011;4820;50.870;4.702;2024-02-15T01:44:00;6.45;;;3.38;;
9563;SDS011;4820;50.870;4.702;2024-02-15T01:46:26;6.22;;;2.92;;
9563;SDS011;4820;50.870;4.702;2024-02-15T01:48:55;9.60;;;3.45;;
9563;SDS011;4820;50.870;4.702;2024-02-15T01:51:21;7.57;;;3.05;;
9563;SDS011;4820;50.870;4.702;2024-02-15T01:53:50;9.95;;;3.40;;
9563;SDS011;4820;50.870;4.702;2024-02-15T01:56:18;7.93;;;3.47;;
9563;SDS011;4820;50.870;4.702;2024-02-15T01:58:45;7.15;;;3.33;;
9563;SDS011;4820;50.870;4.702;2024-02-15T02:01:11;7.25;;;3.33;;
9563;SDS011;4820;50.870;4.702;2024-02-15T02:03:38;6.25;;;3.28;;
9563;SDS011;4820;50.870;4.702;2024-02-15T02:06:04;7.82;;;3.40;;
9563;SDS011;4820;50.870;4.702;2024-02-15T02:08:30;7.50;;;3.40;;
9563;SDS011;4820;50.870;4.702;2024-02-15T02:10:56;6.20;;;3.13;;
9563;SDS011;4820;50.870;4.702;2024-02-15T02:13:22;7.20;;;2.92;;
9563;SDS011;4820;50.870;4.702;2024-02-15T02:15:50;6.65;;;2.90;;
9563;SDS011;4820;50.870;4.702;2024-02-15T02:18:16;5.30;;;2.60;;
9563;SDS011;4820;50.870;4.702;2024-02-15T02:20:42;4.05;;;2.35;;
9563;SDS011;4820;50.870;4.702;2024-02-15T02:23:14;8.18;;;2.72;;
9563;SDS011;4820;50.870;4.702;2024-02-15T02:25:40;7.78;;;2.85;;
9563;SDS011;4820;50.870;4.702;2024-02-15T02:28:08;8.73;;;2.63;;
9563;SDS011;4820;50.870;4.702;2024-02-15T02:30:33;7.28;;;2.70;;
9563;SDS011;4820;50.870;4.702;2024-02-15T02:33:00;6.07;;;2.50;;
9563;SDS011;4820;50.870;4.702;2024-02-15T02:35:26;7.60;;;2.72;;
9563;SDS011;4820;50.870;4.702;2024-02-15T02:37:55;5.65;;;2.17;;
9563;SDS011;4820;50.870;4.702;2024-02-15T02:40:22;4.88;;;2.47;;
9563;SDS011;4820;50.870;4.702;2024-02-15T02:42:51;8.30;;;2.58;;
9563;SDS011;4820;50.870;4.702;2024-02-15T02:45:19;5.50;;;2.10;;
9563;SDS011;4820;50.870;4.702;2024-02-15T02:47:47;5.82;;;2.65;;
9563;SDS011;4820;50.870;4.702;2024-02-15T02:50:16;6.18;;;2.58;;
9563;SDS011;4820;50.870;4.702;2024-02-15T02:52:42;5.65;;;2.30;;
9563;SDS011;4820;50.870;4.702;2024-02-15T02:55:09;7.38;;;2.58;;
9563;SDS011;4820;50.870;4.702;2024-02-15T02:57:36;6.50;;;2.72;;
9563;SDS011;4820;50.870;4.702;2024-02-15T03:00:13;6.53;;;2.53;;
9563;SDS011;4820;50.870;4.702;2024-02-15T03:02:41;5.88;;;2.10;;
9563;SDS011;4820;50.870;4.702;2024-02-15T03:05:08;5.32;;;2.33;;
9563;SDS011;4820;50.870;4.702;2024-02-15T03:07:36;9.73;;;2.80;;
9563;SDS011;4820;50.870;4.702;2024-02-15T03:10:02;6.00;;;2.20;;
9563;SDS011;4820;50.870;4.702;2024-02-15T03:12:30;6.38;;;2.33;;
9563;SDS011;4820;50.870;4.702;2024-02-15T03:14:56;4.78;;;2.50;;
9563;SDS011;4820;50.870;4.702;2024-02-15T03:17:23;6.75;;;2.28;;
9563;SDS011;4820;50.870;4.702;2024-02-15T03:19:51;7.63;;;2.40;;
9563;SDS011;4820;50.870;4.702;2024-02-15T03:22:17;6.18;;;2.65;;
9563;SDS011;4820;50.870;4.702;2024-02-15T03:24:42;7.55;;;2.47;;
9563;SDS011;4820;50.870;4.702;2024-02-15T03:27:08;5.10;;;2.38;;
9563;SDS011;4820;50.870;4.702;2024-02-15T03:29:37;5.80;;;2.78;;
9563;SDS011;4820;50.870;4.702;2024-02-15T03:32:03;6.25;;;2.38;;
9563;SDS011;4820;50.870;4.702;2024-02-15T03:34:30;4.78;;;2.25;;
9563;SDS011;4820;50.870;4.702;2024-02-15T03:36:56;6.82;;;2.63;;
9563;SDS011;4820;50.870;4.702;2024-02-15T03:39:22;7.63;;;3.10;;
9563;SDS011;4820;50.870;4.702;2024-02-15T03:41:49;6.82;;;2.67;;
9563;SDS011;4820;50.870;4.702;2024-02-15T03:44:15;5.75;;;2.58;;
9563;SDS011;4820;50.870;4.702;2024-02-15T03:46:43;5.22;;;2.53;;
9563;SDS011;4820;50.870;4.702;2024-02-15T03:49:15;6.57;;;2.88;;
9563;SDS011;4820;50.870;4.702;2024-02-15T03:51:42;5.00;;;2.72;;
9563;SDS011;4820;50.870;4.702;2024-02-15T03:54:10;7.68;;;3.15;;
9563;SDS011;4820;50.870;4.702;2024-02-15T03:56:36;6.63;;;3.03;;
9563;SDS011;4820;50.870;4.702;2024-02-15T03:59:02;7.65;;;3.28;;
9563;SDS011;4820;50.870;4.702;2024-02-15T04:01:30;6.03;;;3.67;;
9563;SDS011;4820;50.870;4.702;2024-02-15T04:03:59;5.40;;;3.13;;
9563;SDS011;4820;50.870;4.702;2024-02-15T04:06:25;7.40;;;3.50;;
9563;SDS011;4820;50.870;4.702;2024-02-15T04:08:52;7.28;;;3.85;;
9563;SDS011;4820;50.870;4.702;2024-02-15T04:11:18;7.95;;;3.63;;
9563;SDS011;4820;50.870;4.702;2024-02-15T04:13:44;7.75;;;3.60;;
9563;SDS011;4820;50.870;4.702;2024-02-15T04:16:10;6.63;;;3.15;;
9563;SDS011;4820;50.870;4.702;2024-02-15T04:18:36;7.75;;;3.65;;
9563;SDS011;4820;50.870;4.702;2024-02-15T04:21:03;6.65;;;3.38;;
9563;SDS011;4820;50.870;4.702;2024-02-15T04:23:31;8.27;;;3.70;;
9563;SDS011;4820;50.870;4.702;2024-02-15T04:25:56;6.55;;;3.50;;
9563;SDS011;4820;50.870;4.702;2024-02-15T04:28:25;7.65;;;3.13;;
9563;SDS011;4820;50.870;4.702;2024-02-15T04:30:52;5.78;;;3.10;;
9563;SDS011;4820;50.870;4.702;2024-02-15T04:33:17;11.57;;;3.35;;
9563;SDS011;4820;50.870;4.702;2024-02-15T04:35:43;7.75;;;2.58;;
9563;SDS011;4820;50.870;4.702;2024-02-15T04:38:10;7.68;;;3.28;;
9563;SDS011;4820;50.870;4.702;2024-02-15T04:40:36;4.90;;;2.95;;
9563;SDS011;4820;50.870;4.702;2024-02-15T04:43:04;7.65;;;3.08;;
9563;SDS011;4820;50.870;4.702;2024-02-15T04:45:30;9.15;;;3.13;;
9563;SDS011;4820;50.870;4.702;2024-02-15T04:47:57;7.20;;;3.47;;
9563;SDS011;4820;50.870;4.702;2024-02-15T04:50:27;5.55;;;2.95;;
9563;SDS011;4820;50.870;4.702;2024-02-15T04:52:54;9.23;;;3.70;;
9563;SDS011;4820;50.870;4.702;2024-02-15T04:55:20;6.10;;;3.15;;
9563;SDS011;4820;50.870;4.702;2024-02-15T04:57:47;6.13;;;3.10;;
9563;SDS011;4820;50.870;4.702;2024-02-15T05:00:14;4.20;;;2.83;;
9563;SDS011;4820;50.870;4.702;2024-02-15T05:02:40;7.25;;;2.70;;
9563;SDS011;4820;50.870;4.702;2024-02-15T05:05:09;5.60;;;2.67;;
9563;SDS011;4820;50.870;4.702;2024-02-15T05:07:37;6.47;;;3.17;;
9563;SDS011;4820;50.870;4.702;2024-02-15T05:10:05;4.82;;;2.97;;
9563;SDS011;4820;50.870;4.702;2024-02-15T05:12:33;3.65;;;2.55;;
9563;SDS011;4820;50.870;4.702;2024-02-15T05:14:59;5.28;;;2.63;;
9563;SDS011;4820;50.870;4.702;2024-02-15T05:17:25;4.93;;;2.60;;
9563;SDS011;4820;50.870;4.702;2024-02-15T05:19:53;4.95;;;2.63;;
9563;SDS011;4820;50.870;4.702;2024-02-15T05:22:22;4.22;;;2.40;;
9563;SDS011;4820;50.870;4.702;2024-02-15T05:24:48;5.88;;;2.72;;
9563;SDS011;4820;50.870;4.702;2024-02-15T05:27:13;3.53;;;2.47;;
9563;SDS011;4820;50.870;4.702;2024-02-15T05:29:39;7.05;;;2.67;;
9563;SDS011;4820;50.870;4.702;2024-02-15T05:32:06;5.75;;;2.88;;
9563;SDS011;4820;50.870;4.702;2024-02-15T05:34:32;6.13;;;2.55;;
9563;SDS011;4820;50.870;4.702;2024-02-15T05:36:58;7.72;;;3.10;;
9563;SDS011;4820;50.870;4.702;2024-02-15T05:39:24;4.88;;;2.63;;
9563;SDS011;4820;50.870;4.702;2024-02-15T05:41:50;6.03;;;2.50;;
9563;SDS011;4820;50.870;4.702;2024-02-15T05:44:16;5.80;;;2.80;;
9563;SDS011;4820;50.870;4.702;2024-02-15T05:46:45;6.75;;;3.30;;
9563;SDS011;4820;50.870;4.702;2024-02-15T05:49:12;6.55;;;3.00;;
9563;SDS011;4820;50.870;4.702;2024-02-15T05:51:42;6.63;;;3.25;;
9563;SDS011;4820;50.870;4.702;2024-02-15T05:54:08;7.15;;;3.15;;
9563;SDS011;4820;50.870;4.702;2024-02-15T05:56:34;6.10;;;3.03;;
9563;SDS011;4820;50.870;4.702;2024-02-15T05:59:00;7.03;;;3.17;;
9563;SDS011;4820;50.870;4.702;2024-02-15T06:01:28;8.90;;;3.30;;
9563;SDS011;4820;50.870;4.702;2024-02-15T06:03:54;6.20;;;2.95;;
9563;SDS011;4820;50.870;4.702;2024-02-15T06:06:20;7.03;;;2.83;;
9563;SDS011;4820;50.870;4.702;2024-02-15T06:08:46;4.35;;;2.50;;
9563;SDS011;4820;50.870;4.702;2024-02-15T06:11:12;5.30;;;2.50;;
9563;SDS011;4820;50.870;4.702;2024-02-15T06:13:39;5.15;;;2.55;;
9563;SDS011;4820;50.870;4.702;2024-02-15T06:16:06;6.47;;;2.75;;
9563;SDS011;4820;50.870;4.702;2024-02-15T06:18:34;6.00;;;2.33;;
9563;SDS011;4820;50.870;4.702;2024-02-15T06:21:00;5.38;;;1.80;;
9563;SDS011;4820;50.870;4.702;2024-02-15T06:23:27;6.30;;;1.80;;
9563;SDS011;4820;50.870;4.702;2024-02-15T06:25:53;4.30;;;1.90;;
9563;SDS011;4820;50.870;4.702;2024-02-15T06:28:21;6.85;;;2.05;;
9563;SDS011;4820;50.870;4.702;2024-02-15T06:31:06;4.22;;;1.98;;
9563;SDS011;4820;50.870;4.702;2024-02-15T06:33:51;4.43;;;2.00;;
9563;SDS011;4820;50.870;4.702;2024-02-15T06:36:48;4.57;;;1.73;;
9563;SDS011;4820;50.870;4.702;2024-02-15T06:39:34;4.07;;;1.90;;
9563;SDS011;4820;50.870;4.702;2024-02-15T06:42:13;7.53;;;2.33;;
9563;SDS011;4820;50.870;4.702;2024-02-15T06:44:45;6.10;;;1.92;;
9563;SDS011;4820;50.870;4.702;2024-02-15T06:47:12;3.47;;;1.92;;
9563;SDS011;4820;50.870;4.702;2024-02-15T06:49:38;4.78;;;1.95;;
9563;SDS011;4820;50.870;4.702;2024-02-15T06:52:05;3.47;;;1.73;;
9563;SDS011;4820;50.870;4.702;2024-02-15T06:54:32;5.60;;;1.75;;
9563;SDS011;4820;50.870;4.702;2024-02-15T06:57:03;4.60;;;1.85;;
9563;SDS011;4820;50.870;4.702;2024-02-15T06:59:30;8.18;;;2.20;;
9563;SDS011;4820;50.870;4.702;2024-02-15T07:01:57;4.07;;;2.10;;
9563;SDS011;4820;50.870;4.702;2024-02-15T07:04:23;7.97;;;2.05;;
9563;SDS011;4820;50.870;4.702;2024-02-15T07:06:51;4.75;;;2.22;;
9563;SDS011;4820;50.870;4.702;2024-02-15T07:09:19;4.30;;;1.90;;
9563;SDS011;4820;50.870;4.702;2024-02-15T07:11:47;3.38;;;1.73;;
9563;SDS011;4820;50.870;4.702;2024-02-15T07:14:13;4.50;;;1.80;;
9563;SDS011;4820;50.870;4.702;2024-02-15T07:16:43;4.72;;;1.92;;
9563;SDS011;4820;50.870;4.702;2024-02-15T07:19:13;6.85;;;1.92;;
9563;SDS011;4820;50.870;4.702;2024-02-15T07:21:39;5.10;;;1.73;;
9563;SDS011;4820;50.870;4.702;2024-02-15T07:24:05;3.78;;;1.75;;
9563;SDS011;4820;50.870;4.702;2024-02-15T07:26:31;3.92;;;1.92;;
9563;SDS011;4820;50.870;4.702;2024-02-15T07:28:58;5.05;;;2.15;;
9563;SDS011;4820;50.870;4.702;2024-02-15T07:31:27;3.90;;;1.80;;
9563;SDS011;4820;50.870;4.702;2024-02-15T07:33:54;3.75;;;1.70;;
9563;SDS011;4820;50.870;4.702;2024-02-15T07:36:20;3.80;;;2.15;;
9563;SDS011;4820;50.870;4.702;2024-02-15T07:38:50;7.25;;;2.40;;
9563;SDS011;4820;50.870;4.702;2024-02-15T07:41:20;5.13;;;2.47;;
9563;SDS011;4820;50.870;4.702;2024-02-15T07:43:47;6.60;;;2.13;;
9563;SDS011;4820;50.870;4.702;2024-02-15T07:46:14;2.90;;;1.90;;
9563;SDS011;4820;50.870;4.702;2024-02-15T07:48:41;5.25;;;1.90;;
9563;SDS011;4820;50.870;4.702;2024-02-15T07:51:14;5.10;;;2.22;;
9563;SDS011;4820;50.870;4.702;2024-02-15T07:53:41;3.35;;;2.30;;
9563;SDS011;4820;50.870;4.702;2024-02-15T07:56:08;4.03;;;2.08;;
9563;SDS011;4820;50.870;4.702;2024-02-15T07:58:37;5.78;;;2.28;;
9563;SDS011;4820;50.870;4.702;2024-02-15T08:01:06;6.70;;;2.15;;
9563;SDS011;4820;50.870;4.702;2024-02-15T08:03:33;4.63;;;2.28;;
9563;SDS011;4820;50.870;4.702;2024-02-15T08:06:00;4.55;;;2.25;;
9563;SDS011;4820;50.870;4.702;2024-02-15T08:08:26;5.85;;;2.40;;
9563;SDS011;4820;50.870;4.702;2024-02-15T08:10:52;3.85;;;2.00;;
9563;SDS011;4820;50.870;4.702;2024-02-15T08:13:18;5.00;;;2.05;;
9563;SDS011;4820;50.870;4.702;2024-02-15T08:15:47;5.50;;;2.08;;
9563;SDS011;4820;50.870;4.702;2024-02-15T08:18:17;5.38;;;2.28;;
9563;SDS011;4820;50.870;4.702;2024-02-15T08:20:43;3.45;;;1.98;;
9563;SDS011;4820;50.870;4.702;2024-02-15T08:23:10;4.30;;;2.03;;
9563;SDS011;4820;50.870;4.702;2024-02-15T08:25:38;5.38;;;1.90;;
9563;SDS011;4820;50.870;4.702;2024-02-15T08:28:05;3.45;;;1.70;;
9563;SDS011;4820;50.870;4.702;2024-02-15T08:30:32;5.05;;;2.00;;
9563;SDS011;4820;50.870;4.702;2024-02-15T08:32:58;3.28;;;1.92;;
9563;SDS011;4820;50.870;4.702;2024-02-15T08:35:24;6.60;;;2.35;;
9563;SDS011;4820;50.870;4.702;2024-02-15T08:37:50;5.25;;;2.10;;
9563;SDS011;4820;50.870;4.702;2024-02-15T08:40:17;4.45;;;1.88;;
9563;SDS011;4820;50.870;4.702;2024-02-15T08:42:44;5.82;;;2.00;;
9563;SDS011;4820;50.870;4.702;2024-02-15T08:45:11;3.85;;;2.03;;
9563;SDS011;4820;50.870;4.702;2024-02-15T08:47:41;2.30;;;1.70;;
9563;SDS011;4820;50.870;4.702;2024-02-15T08:50:08;3.42;;;1.70;;
9563;SDS011;4820;50.870;4.702;2024-02-15T08:52:35;3.28;;;1.77;;
9563;SDS011;4820;50.870;4.702;2024-02-15T08:55:08;3.60;;;2.00;;
9563;SDS011;4820;50.870;4.702;2024-02-15T08:57:35;2.92;;;1.83;;
9563;SDS011;4820;50.870;4.702;2024-02-15T09:00:02;3.88;;;1.90;;
9563;SDS011;4820;50.870;4.702;2024-02-15T09:02:47;4.10;;;1.83;;
9563;SDS011;4820;50.870;4.702;2024-02-15T09:05:14;4.10;;;1.88;;
9563;SDS011;4820;50.870;4.702;2024-02-15T09:07:43;4.03;;;1.80;;
9563;SDS011;4820;50.870;4.702;2024-02-15T09:10:13;3.78;;;1.85;;
9563;SDS011;4820;50.870;4.702;2024-02-15T09:12:40;5.07;;;1.77;;
9563;SDS011;4820;50.870;4.702;2024-02-15T09:15:07;4.80;;;1.55;;
9563;SDS011;4820;50.870;4.702;2024-02-15T09:17:36;4.68;;;2.10;;
9563;SDS011;4820;50.870;4.702;2024-02-15T09:20:07;4.65;;;1.85;;
9563;SDS011;4820;50.870;4.702;2024-02-15T09:22:39;4.65;;;2.40;;
9563;SDS011;4820;50.870;4.702;2024-02-15T09:25:08;3.33;;;1.98;;
9563;SDS011;4820;50.870;4.702;2024-02-15T09:27:35;5.57;;;2.20;;
9563;SDS011;4820;50.870;4.702;2024-02-15T09:30:01;5.28;;;2.13;;
9563;SDS011;4820;50.870;4.702;2024-02-15T09:32:28;5.90;;;2.30;;
9563;SDS011;4820;50.870;4.702;2024-02-15T09:34:54;4.05;;;2.70;;
9563;SDS011;4820;50.870;4.702;2024-02-15T09:37:20;4.10;;;2.00;;
9563;SDS011;4820;50.870;4.702;2024-02-15T09:39:45;3.40;;;1.98;;
9563;SDS011;4820;50.870;4.702;2024-02-15T09:42:11;5.55;;;2.35;;
9563;SDS011;4820;50.870;4.702;2024-02-15T09:44:38;3.85;;;2.10;;
9563;SDS011;4820;50.870;4.702;2024-02-15T09:47:05;5.53;;;2.15;;
9563;SDS011;4820;50.870;4.702;2024-02-15T09:49:38;3.20;;;1.77;;
9563;SDS011;4820;50.870;4.702;2024-02-15T09:52:07;6.07;;;2.40;;
9563;SDS011;4820;50.870;4.702;2024-02-15T09:54:42;4.88;;;2.17;;
9563;SDS011;4820;50.870;4.702;2024-02-15T09:57:11;4.85;;;1.90;;
9563;SDS011;4820;50.870;4.702;2024-02-15T09:59:37;7.05;;;6.32;;
9563;SDS011;4820;50.870;4.702;2024-02-15T10:02:05;3.03;;;1.85;;
9563;SDS011;4820;50.870;4.702;2024-02-15T10:04:36;3.13;;;2.10;;
9563;SDS011;4820;50.870;4.702;2024-02-15T10:07:05;8.30;;;2.53;;
9563;SDS011;4820;50.870;4.702;2024-02-15T10:09:33;4.45;;;2.17;;
9563;SDS011;4820;50.870;4.702;2024-02-15T10:12:02;3.88;;;2.00;;
9563;SDS011;4820;50.870;4.702;2024-02-15T10:14:31;4.05;;;2.22;;
9563;SDS011;4820;50.870;4.702;2024-02-15T10:17:04;3.88;;;1.80;;
9563;SDS011;4820;50.870;4.702;2024-02-15T10:19:34;3.15;;;1.77;;
9563;SDS011;4820;50.870;4.702;2024-02-15T10:22:07;3.95;;;2.38;;
9563;SDS011;4820;50.870;4.702;2024-02-15T10:24:35;4.50;;;1.88;;
9563;SDS011;4820;50.870;4.702;2024-02-15T10:27:04;2.78;;;2.00;;
9563;SDS011;4820;50.870;4.702;2024-02-15T10:29:33;4.88;;;2.20;;
9563;SDS011;4820;50.870;4.702;2024-02-15T10:32:00;7.80;;;2.08;;
9563;SDS011;4820;50.870;4.702;2024-02-15T10:34:27;5.22;;;2.28;;
9563;SDS011;4820;50.870;4.702;2024-02-15T10:37:15;4.38;;;1.75;;
9563;SDS011;4820;50.870;4.702;2024-02-15T10:39:45;4.00;;;2.00;;
9563;SDS011;4820;50.870;4.702;2024-02-15T10:42:11;4.50;;;1.77;;
9563;SDS011;4820;50.870;4.702;2024-02-15T10:44:39;4.18;;;1.67;;
9563;SDS011;4820;50.870;4.702;2024-02-15T10:47:07;3.80;;;1.75;;
9563;SDS011;4820;50.870;4.702;2024-02-15T10:49:34;2.80;;;1.73;;
9563;SDS011;4820;50.870;4.702;2024-02-15T10:52:01;4.38;;;1.80;;
9563;SDS011;4820;50.870;4.702;2024-02-15T10:57:20;5.75;;;1.73;;
9563;SDS011;4820;50.870;4.702;2024-02-15T10:59:54;2.63;;;1.67;;
9563;SDS011;4820;50.870;4.702;2024-02-15T11:02:30;2.63;;;1.55;;
9563;SDS011;4820;50.870;4.702;2024-02-15T11:05:03;2.40;;;1.65;;
9563;SDS011;4820;50.870;4.702;2024-02-15T11:07:34;2.97;;;1.63;;
9563;SDS011;4820;50.870;4.702;2024-02-15T11:10:05;3.47;;;1.52;;
9563;SDS011;4820;50.870;4.702;2024-02-15T11:12:34;3.10;;;1.90;;
9563;SDS011;4820;50.870;4.702;2024-02-15T11:15:00;4.47;;;1.85;;
9563;SDS011;4820;50.870;4.702;2024-02-15T11:20:10;3.30;;;1.50;;
9563;SDS011;4820;50.870;4.702;2024-02-15T11:22:57;3.17;;;1.63;;
9563;SDS011;4820;50.870;4.702;2024-02-15T11:25:39;4.82;;;1.88;;
9563;SDS011;4820;50.870;4.702;2024-02-15T11:30:52;2.67;;;1.63;;
9563;SDS011;4820;50.870;4.702;2024-02-15T11:36:09;3.05;;;1.60;;
9563;SDS011;4820;50.870;4.702;2024-02-15T11:38:36;3.65;;;1.50;;
9563;SDS011;4820;50.870;4.702;2024-02-15T11:41:06;3.75;;;1.60;;
9563;SDS011;4820;50.870;4.702;2024-02-15T11:43:48;2.40;;;1.50;;
9563;SDS011;4820;50.870;4.702;2024-02-15T11:46:21;4.97;;;1.80;;
9563;SDS011;4820;50.870;4.702;2024-02-15T11:48:49;3.95;;;1.60;;
9563;SDS011;4820;50.870;4.702;2024-02-15T11:56:25;2.75;;;1.25;;
9563;SDS011;4820;50.870;4.702;2024-02-15T11:59:01;3.17;;;1.50;;
9563;SDS011;4820;50.870;4.702;2024-02-15T12:01:33;3.17;;;1.45;;
9563;SDS011;4820;50.870;4.702;2024-02-15T12:04:36;3.25;;;1.60;;
9563;SDS011;4820;50.870;4.702;2024-02-15T12:07:22;2.30;;;1.58;;
9563;SDS011;4820;50.870;4.702;2024-02-15T12:10:14;6.97;;;1.90;;
9563;SDS011;4820;50.870;4.702;2024-02-15T12:13:02;3.50;;;1.63;;
9563;SDS011;4820;50.870;4.702;2024-02-15T12:15:56;2.45;;;1.40;;
9563;SDS011;4820;50.870;4.702;2024-02-15T12:18:43;3.65;;;1.65;;
9563;SDS011;4820;50.870;4.702;2024-02-15T12:21:13;4.35;;;1.58;;
9563;SDS011;4820;50.870;4.702;2024-02-15T12:23:43;4.18;;;1.58;;
9563;SDS011;4820;50.870;4.702;2024-02-15T12:26:10;4.50;;;1.80;;
9563;SDS011;4820;50.870;4.702;2024-02-15T12:28:35;3.33;;;1.50;;
9563;SDS011;4820;50.870;4.702;2024-02-15T12:31:02;2.55;;;1.45;;
9563;SDS011;4820;50.870;4.702;2024-02-15T12:33:28;3.72;;;1.50;;
9563;SDS011;4820;50.870;4.702;2024-02-15T12:36:06;4.40;;;1.55;;
9563;SDS011;4820;50.870;4.702;2024-02-15T12:39:00;3.85;;;1.30;;
9563;SDS011;4820;50.870;4.702;2024-02-15T12:41:39;2.92;;;1.50;;
9563;SDS011;4820;50.870;4.702;2024-02-15T12:44:06;3.78;;;1.40;;
9563;SDS011;4820;50.870;4.702;2024-02-15T12:49:45;2.00;;;1.38;;
9563;SDS011;4820;50.870;4.702;2024-02-15T12:55:10;1.73;;;1.10;;
9563;SDS011;4820;50.870;4.702;2024-02-15T12:57:41;2.25;;;1.30;;
9563;SDS011;4820;50.870;4.702;2024-02-15T13:00:28;3.97;;;1.30;;
9563;SDS011;4820;50.870;4.702;2024-02-15T13:02:56;5.57;;;1.63;;
9563;SDS011;4820;50.870;4.702;2024-02-15T13:05:27;6.43;;;1.67;;
9563;SDS011;4820;50.870;4.702;2024-02-15T13:07:53;1.98;;;1.10;;
9563;SDS011;4820;50.870;4.702;2024-02-15T13:10:38;4.35;;;1.33;;
9563;SDS011;4820;50.870;4.702;2024-02-15T13:13:04;4.22;;;1.50;;
9563;SDS011;4820;50.870;4.702;2024-02-15T13:15:40;2.88;;;1.25;;
9563;SDS011;4820;50.870;4.702;2024-02-15T13:18:06;4.03;;;1.70;;
9563;SDS011;4820;50.870;4.702;2024-02-15T13:20:34;2.45;;;1.55;;
9563;SDS011;4820;50.870;4.702;2024-02-15T13:23:09;2.55;;;1.73;;
9563;SDS011;4820;50.870;4.702;2024-02-15T13:25:48;4.00;;;1.35;;
9563;SDS011;4820;50.870;4.702;2024-02-15T13:28:14;2.45;;;1.35;;
9563;SDS011;4820;50.870;4.702;2024-02-15T13:30:40;2.72;;;1.33;;
9563;SDS011;4820;50.870;4.702;2024-02-15T13:33:09;5.13;;;1.63;;
9563;SDS011;4820;50.870;4.702;2024-02-15T13:35:53;3.63;;;1.27;;
9563;SDS011;4820;50.870;4.702;2024-02-15T13:38:19;2.25;;;1.20;;
9563;SDS011;4820;50.870;4.702;2024-02-15T13:40:48;1.83;;;1.20;;
9563;SDS011;4820;50.870;4.702;2024-02-15T13:43:17;2.40;;;1.30;;
9563;SDS011;4820;50.870;4.702;2024-02-15T13:45:44;1.77;;;1.30;;
9563;SDS011;4820;50.870;4.702;2024-02-15T13:48:29;3.50;;;1.40;;
9563;SDS011;4820;50.870;4.702;2024-02-15T13:50:55;2.50;;;1.10;;
9563;SDS011;4820;50.870;4.702;2024-02-15T13:53:21;2.83;;;1.33;;
9563;SDS011;4820;50.870;4.702;2024-02-15T13:56:06;2.00;;;1.20;;
9563;SDS011;4820;50.870;4.702;2024-02-15T13:58:32;4.63;;;1.20;;
9563;SDS011;4820;50.870;4.702;2024-02-15T14:00:58;5.82;;;1.70;;
9563;SDS011;4820;50.870;4.702;2024-02-15T14:03:28;2.17;;;1.20;;
9563;SDS011;4820;50.870;4.702;2024-02-15T14:05:54;2.78;;;1.35;;
9563;SDS011;4820;50.870;4.702;2024-02-15T14:08:57;2.92;;;1.20;;
9563;SDS011;4820;50.870;4.702;2024-02-15T14:11:42;1.30;;;0.93;;
9563;SDS011;4820;50.870;4.702;2024-02-15T14:14:26;2.15;;;1.20;;
9563;SDS011;4820;50.870;4.702;2024-02-15T14:16:52;1.80;;;1.20;;
9563;SDS011;4820;50.870;4.702;2024-02-15T14:19:18;1.10;;;0.98;;
9563;SDS011;4820;50.870;4.702;2024-02-15T14:21:43;1.85;;;1.40;;
9563;SDS011;4820;50.870;4.702;2024-02-15T14:24:10;3.65;;;1.25;;
9563;SDS011;4820;50.870;4.702;2024-02-15T14:26:54;2.42;;;1.05;;
9563;SDS011;4820;50.870;4.702;2024-02-15T14:29:20;2.25;;;1.27;;
9563;SDS011;4820;50.870;4.702;2024-02-15T14:32:06;2.10;;;1.25;;
9563;SDS011;4820;50.870;4.702;2024-02-15T14:34:50;3.78;;;1.10;;
9563;SDS011;4820;50.870;4.702;2024-02-15T14:37:34;2.15;;;1.20;;
9563;SDS011;4820;50.870;4.702;2024-02-15T14:40:00;2.70;;;1.20;;
9563;SDS011;4820;50.870;4.702;2024-02-15T14:42:25;3.72;;;1.20;;
9563;SDS011;4820;50.870;4.702;2024-02-15T14:44:51;1.88;;;1.40;;
9563;SDS011;4820;50.870;4.702;2024-02-15T14:47:35;3.60;;;1.27;;
9563;SDS011;4820;50.870;4.702;2024-02-15T14:50:01;4.05;;;1.38;;
9563;SDS011;4820;50.870;4.702;2024-02-15T14:52:47;2.20;;;1.30;;
9563;SDS011;4820;50.870;4.702;2024-02-15T14:55:13;1.63;;;1.38;;
9563;SDS011;4820;50.870;4.702;2024-02-15T14:57:38;2.80;;;1.30;;
9563;SDS011;4820;50.870;4.702;2024-02-15T15:00:05;1.65;;;1.40;;
9563;SDS011;4820;50.870;4.702;2024-02-15T15:02:36;3.83;;;1.40;;
9563;SDS011;4820;50.870;4.702;2024-02-15T15:05:02;2.38;;;1.25;;
9563;SDS011;4820;50.870;4.702;2024-02-15T15:07:46;2.85;;;1.20;;
9563;SDS011;4820;50.870;4.702;2024-02-15T15:10:31;3.00;;;1.38;;
9563;SDS011;4820;50.870;4.702;2024-02-15T15:13:15;1.30;;;1.05;;
9563;SDS011;4820;50.870;4.702;2024-02-15T15:16:00;2.50;;;1.50;;
9563;SDS011;4820;50.870;4.702;2024-02-15T15:18:27;2.97;;;1.33;;
9563;SDS011;4820;50.870;4.702;2024-02-15T15:20:55;3.75;;;1.60;;
9563;SDS011;4820;50.870;4.702;2024-02-15T15:23:20;2.13;;;1.10;;
9563;SDS011;4820;50.870;4.702;2024-02-15T15:25:47;4.13;;;1.45;;
9563;SDS011;4820;50.870;4.702;2024-02-15T15:28:37;1.98;;;1.25;;
9563;SDS011;4820;50.870;4.702;2024-02-15T15:31:03;4.90;;;1.58;;
9563;SDS011;4820;50.870;4.702;2024-02-15T15:33:32;2.15;;;1.00;;
9563;SDS011;4820;50.870;4.702;2024-02-15T15:35:58;1.70;;;1.30;;
9563;SDS011;4820;50.870;4.702;2024-02-15T15:38:44;2.80;;;1.50;;
9563;SDS011;4820;50.870;4.702;2024-02-15T15:41:10;2.30;;;1.48;;
9563;SDS011;4820;50.870;4.702;2024-02-15T15:43:37;1.63;;;1.25;;
9563;SDS011;4820;50.870;4.702;2024-02-15T15:46:04;2.55;;;1.33;;
9563;SDS011;4820;50.870;4.702;2024-02-15T15:48:30;3.17;;;1.40;;
9563;SDS011;4820;50.870;4.702;2024-02-15T15:51:14;3.08;;;1.60;;